Ennis, TX (75119)

1:41 AM CST on March 02, 2015 (GMT -0600)
Summit | Change Station
CLOSE
Current Station
Personal Weather Station
Location: Ennis, TX
Elevation: 505 ft
Nearby Weather Stations

Elev 505 ft 32.40 °N, 96.65 °W | Updated 20 seconds ago

Rain
Rain
37.0 °F
Feels Like 31 °F
N
7.6
Wind Variable Wind from North
Gusts 9.8 mph

Today
High -- | Low -- °F
--% Chance of Precip.
Yesterday
High -- | Low -- °F
Precip. -- in
6:52 AM 6:24 PM
Waxing Gibbous, 90% visible
Pressure 30.40 in
Visibility 3.0 miles
Clouds Overcast 600 ft
Windchill 31 °F
Dew Point 36 °F
Humidity 96%
Rainfall 0.00 in
Snow Depth Not available.
UV 0.0 out of 12
Pollen 6.50 out of 12
Air Quality Not available.
Flu Activity Not available.
METAR KLNC 020735Z AUTO 33006KT 3SM DZ OVC006 02/01 A3040 RMK AO2 P0001 T00210010

More Conditions Fewer Conditions

Pressure 30.40 in
Visibility 3.0 miles
Clouds Overcast 600 ft
Windchill 31 °F
Dew Point 36 °F
Humidity 96%
Rainfall 0.00 in
Snow Depth Not available.
UV 0.0 out of 12
Pollen 6.50 out of 12
Air Quality Not available.
Flu Activity Not available.
METAR KLNC 020735Z AUTO 33006KT 3SM DZ OVC006 02/01 A3040 RMK AO2 P0001 T00210010

More Conditions Fewer Conditions

Nowcast | as of 8:49 PM CST on March 1, 2015

Patchy very light rain or drizzle will continue to develop across most of central and North Texas through the predawn hours Monday. Temperatures will remain above freezing...thus no icing of bridges and overpasses is expected. Patchy light fog is also expected to develop after midnight. Rainfall amounts will be very light and average a trace to a few hundredths. Otherwise...temperatures will remain steady in the 30s to lower 40s across the far southeast. North winds around 10 mph will continue overnight creating wind chills mostly in the 20s and lower 30s.

×

10-Day Weather Forecast

Almanac

Astronomy

Mar. 02, 2015 Rise Set
Actual Time
Civil Twilight
Nautical Twilight
Astronomical Twilight
Moon
Length of Visible Light
Length of Day
Tomorrow will be .
, % of the Moon is Illuminated

Today's Extremes

State Highs State Lows

Community

WunderPhotos

Upload Photos

1,801,739 photos uploaded!

WunderBlogs® & News

Nearby

Air Quality

  Air Quality AQ Index Pollutant
Not available.

Snow Depth

Station Depth Elevation

Earthquake Activity

City Distance Mag. Time & Date
Minimum magnitude displayed is 2.5.

Coastal Water Temperatures

Place Temperature

Nearby Weather Stations